createdAt,value
2022-11-04T00:05:01.002Z,8.92
2022-11-04T00:10:02.885Z,8.94
2022-11-04T00:15:25.558Z,9.03
2022-11-04T00:20:46.115Z,9.18
2022-11-04T00:26:06.520Z,9.43
2022-11-04T00:31:28.678Z,9.71
2022-11-04T00:36:30.500Z,9.95
2022-11-04T00:41:32.392Z,10.14
2022-11-04T00:46:34.837Z,10.27
2022-11-04T00:51:36.700Z,10.34
2022-11-04T00:56:39.575Z,10.34
2022-11-04T01:01:42.218Z,10.32
2022-11-04T01:06:44.695Z,10.30
2022-11-04T01:11:46.648Z,10.27
2022-11-04T01:16:52.026Z,10.23
2022-11-04T01:21:53.908Z,10.20
2022-11-04T01:26:55.855Z,10.18
2022-11-04T01:31:57.776Z,10.17
2022-11-04T01:36:59.627Z,10.18
2022-11-04T01:42:01.617Z,10.21
2022-11-04T01:47:04.618Z,10.25
2022-11-04T01:52:15.410Z,10.28
2022-11-04T01:57:25.273Z,10.30
2022-11-04T02:02:27.357Z,10.28
2022-11-04T02:07:29.949Z,10.23
2022-11-04T02:12:50.133Z,10.15
2022-11-04T02:18:10.956Z,10.06
2022-11-04T02:23:48.800Z,9.98
2022-11-04T02:29:18.842Z,9.92
2022-11-04T02:34:26.010Z,9.89
2022-11-04T02:39:51.344Z,9.85
2022-11-04T02:45:21.937Z,9.81
2022-11-04T02:50:33.675Z,9.80
2022-11-04T02:55:43.303Z,9.78
2022-11-04T03:00:47.097Z,9.79
2022-11-04T03:05:52.709Z,9.79
2022-11-04T03:10:59.427Z,9.81
2022-11-04T03:16:09.449Z,9.86
2022-11-04T03:21:15.529Z,9.92
2022-11-04T03:26:32.710Z,9.96
2022-11-04T03:31:54.527Z,9.98
2022-11-04T03:36:57.312Z,9.99
2022-11-04T03:42:20.338Z,9.95
2022-11-04T03:47:25.982Z,9.88
2022-11-04T03:52:27.866Z,9.76
2022-11-04T03:57:51.240Z,9.64
2022-11-04T04:03:06.734Z,9.50
2022-11-04T04:08:34.607Z,9.34
2022-11-04T04:13:36.551Z,9.17
2022-11-04T04:18:55.785Z,9.06
2022-11-04T04:24:24.678Z,8.96
2022-11-04T04:29:29.513Z,8.85
2022-11-04T04:34:33.557Z,8.79
2022-11-04T04:40:00.839Z,8.78
2022-11-04T04:45:05.580Z,8.81
2022-11-04T04:50:09.195Z,8.85
2022-11-04T04:55:12.535Z,8.81
2022-11-04T05:00:19.986Z,8.69
2022-11-04T05:05:21.976Z,8.56
2022-11-04T05:10:26.089Z,8.43
2022-11-04T05:15:31.406Z,8.31
2022-11-04T05:20:34.562Z,8.24
2022-11-04T05:25:36.544Z,8.22
2022-11-04T05:30:38.473Z,8.18
2022-11-04T05:35:40.443Z,8.19
2022-11-04T05:40:42.341Z,8.22
2022-11-04T05:45:44.144Z,8.27
2022-11-04T05:50:45.987Z,8.34
2022-11-04T05:55:47.817Z,8.42
2022-11-04T06:00:49.679Z,8.54
2022-11-04T06:05:51.510Z,8.68
2022-11-04T06:10:53.411Z,8.82
2022-11-04T06:15:55.263Z,8.94
2022-11-04T06:21:15.377Z,9.02
2022-11-04T06:26:18.313Z,9.11
2022-11-04T06:31:20.626Z,9.18
2022-11-04T06:36:22.485Z,9.25
2022-11-04T06:41:25.113Z,9.35
2022-11-04T06:46:40.256Z,9.47
2022-11-04T06:51:42.162Z,9.60
2022-11-04T06:56:45.075Z,9.67
2022-11-04T07:01:49.316Z,9.74
2022-11-04T07:06:51.302Z,9.81
2022-11-04T07:11:53.104Z,9.87
2022-11-04T07:16:54.926Z,9.94
2022-11-04T07:21:58.019Z,10.04
2022-11-04T07:32:07.601Z,10.22
2022-11-04T07:37:09.851Z,10.23
2022-11-04T07:42:11.743Z,10.26
2022-11-04T07:47:14.601Z,10.29
2022-11-04T07:52:16.830Z,10.36
2022-11-04T07:57:18.681Z,10.47
2022-11-04T08:02:25.786Z,10.60
2022-11-04T08:07:29.561Z,10.76
2022-11-04T08:12:32.495Z,10.95
2022-11-04T08:17:34.369Z,11.14
2022-11-04T08:22:36.555Z,11.32
2022-11-04T08:27:38.368Z,11.48
2022-11-04T08:32:40.312Z,11.65
2022-11-04T08:37:42.197Z,11.83
2022-11-04T08:42:44.013Z,12.01
2022-11-04T08:47:45.818Z,12.20
2022-11-04T08:52:48.257Z,12.35
2022-11-04T08:57:51.288Z,12.48
2022-11-04T09:02:53.187Z,12.59
2022-11-04T09:07:55.672Z,12.70
2022-11-04T09:12:57.570Z,12.79
2022-11-04T09:17:59.530Z,12.87
2022-11-04T09:23:01.564Z,12.94
2022-11-04T09:28:04.783Z,13.08
2022-11-04T09:33:06.796Z,13.26
2022-11-04T09:38:08.964Z,13.41
2022-11-04T09:43:39.730Z,13.52
2022-11-04T09:48:53.808Z,13.63
2022-11-04T09:54:02.832Z,13.69
2022-11-04T09:59:06.445Z,13.78
2022-11-04T10:04:33.358Z,13.82
2022-11-04T10:09:43.380Z,13.82
2022-11-04T10:14:50.964Z,13.87
2022-11-04T10:20:18.072Z,13.93
2022-11-04T10:25:28.179Z,13.99
2022-11-04T10:30:32.228Z,13.97
2022-11-04T10:35:42.803Z,13.89
2022-11-04T10:40:51.333Z,13.84
2022-11-04T10:46:22.659Z,13.81
2022-11-04T10:51:24.776Z,13.84
2022-11-04T10:56:42.600Z,13.89
2022-11-04T11:01:56.805Z,14.00
2022-11-04T11:07:00.594Z,14.04
2022-11-04T11:12:44.122Z,14.03
2022-11-04T11:17:34.488Z,14.07
2022-11-04T11:22:41.704Z,14.13
2022-11-04T11:27:49.938Z,14.14
2022-11-04T11:33:01.397Z,14.12
2022-11-04T11:38:06.055Z,14.15
2022-11-04T11:43:21.320Z,14.29
2022-11-04T11:48:29.978Z,14.53
2022-11-04T11:53:34.473Z,14.75
2022-11-04T12:09:42.077Z,14.87
2022-11-04T12:15:07.081Z,14.79
2022-11-04T12:21:00.115Z,14.81
2022-11-04T12:26:20.256Z,14.73
2022-11-04T12:31:45.363Z,14.58
2022-11-04T12:37:01.928Z,14.41
2022-11-04T12:42:20.527Z,14.26
2022-11-04T12:47:38.828Z,14.16
2022-11-04T12:52:54.264Z,14.15
2022-11-04T12:58:17.559Z,14.24
2022-11-04T13:03:30.320Z,14.29
2022-11-04T13:08:41.981Z,14.21
2022-11-04T13:13:44.106Z,14.09
2022-11-04T13:18:48.026Z,14.04
2022-11-04T13:23:58.144Z,14.07
2022-11-04T13:29:09.121Z,14.11
2022-11-04T13:34:48.051Z,14.11
2022-11-04T13:39:57.718Z,14.00
2022-11-04T13:45:14.955Z,13.88
2022-11-04T13:50:37.016Z,13.81
2022-11-04T13:55:50.393Z,13.72
2022-11-04T14:01:14.010Z,13.61
2022-11-04T14:06:16.040Z,13.58
2022-11-04T14:11:17.843Z,13.59
2022-11-04T14:16:25.485Z,13.59
2022-11-04T14:21:29.524Z,13.59
2022-11-04T14:26:48.616Z,13.53
2022-11-04T14:31:53.183Z,13.50
2022-11-04T14:37:05.455Z,13.43
2022-11-04T14:42:14.004Z,13.35
2022-11-04T14:47:22.055Z,13.33
2022-11-04T14:52:35.165Z,13.33
2022-11-04T14:57:42.456Z,13.32
2022-11-04T15:02:44.350Z,13.26
2022-11-04T15:07:46.239Z,13.17
2022-11-04T15:12:52.036Z,13.08
2022-11-04T15:18:01.843Z,13.00
2022-11-04T15:23:06.859Z,12.92
2022-11-04T15:28:18.061Z,12.76
2022-11-04T15:33:20.012Z,12.63
2022-11-04T15:38:24.324Z,12.50
2022-11-04T15:43:26.234Z,12.39
2022-11-04T15:48:33.818Z,12.34
2022-11-04T15:53:50.573Z,12.28
2022-11-04T15:58:54.536Z,12.23
2022-11-04T16:04:00.470Z,12.17
2022-11-04T16:09:25.940Z,12.11
2022-11-04T16:14:30.169Z,12.08
2022-11-04T16:19:32.491Z,12.05
2022-11-04T16:24:37.987Z,12.01
2022-11-04T16:29:45.213Z,11.97
2022-11-04T16:34:52.362Z,11.94
2022-11-04T16:39:54.403Z,11.94
2022-11-04T16:45:02.640Z,11.93
2022-11-04T16:50:13.225Z,11.90
2022-11-04T16:55:15.941Z,11.88
2022-11-04T17:00:20.963Z,11.84
2022-11-04T17:05:23.106Z,11.81
2022-11-04T17:10:27.965Z,11.76
2022-11-04T17:15:29.783Z,11.73
2022-11-04T17:20:32.043Z,11.72
2022-11-04T17:25:33.897Z,11.71
2022-11-04T17:30:36.077Z,11.66
2022-11-04T17:35:38.419Z,11.60
2022-11-04T17:40:59.182Z,11.53
2022-11-04T17:46:20.956Z,11.46
2022-11-04T17:51:23.114Z,11.41
2022-11-04T17:56:25.644Z,11.36
2022-11-04T18:01:28.148Z,11.34
2022-11-04T18:06:32.593Z,11.32
2022-11-04T18:11:53.123Z,11.32
2022-11-04T18:16:55.110Z,11.35
2022-11-04T18:21:57.407Z,11.36
2022-11-04T18:26:59.862Z,11.34
2022-11-04T18:32:01.778Z,11.33
2022-11-04T18:37:03.794Z,11.34
2022-11-04T18:42:05.702Z,11.34
2022-11-04T18:47:07.495Z,11.37
2022-11-04T18:52:09.330Z,11.39
2022-11-04T18:57:12.187Z,11.42
2022-11-04T19:02:19.839Z,11.42
2022-11-04T19:07:21.665Z,11.41
2022-11-04T19:12:42.100Z,11.38
2022-11-04T19:17:44.035Z,11.38
2022-11-04T19:22:46.129Z,11.37
2022-11-04T19:28:00.069Z,11.38
2022-11-04T19:33:10.886Z,11.40
2022-11-04T19:38:12.986Z,11.42
2022-11-04T19:43:15.199Z,11.43
2022-11-04T19:48:18.976Z,11.44
2022-11-04T19:53:21.134Z,11.46
2022-11-04T19:58:23.401Z,11.47
2022-11-04T20:03:25.223Z,11.48
2022-11-04T20:08:27.230Z,11.51
2022-11-04T20:13:44.428Z,11.53
2022-11-04T20:18:50.697Z,11.56
2022-11-04T20:23:57.613Z,11.56
2022-11-04T20:29:00.448Z,11.56
2022-11-04T20:34:05.114Z,11.52
2022-11-04T20:39:18.329Z,11.45
2022-11-04T20:44:20.295Z,11.40
2022-11-04T20:49:22.283Z,11.28
2022-11-04T20:54:24.187Z,11.17
2022-11-04T20:59:27.617Z,11.10
2022-11-04T21:04:34.799Z,11.07
2022-11-04T21:09:37.955Z,11.05
2022-11-04T21:14:39.827Z,11.04
2022-11-04T21:19:41.730Z,11.08
2022-11-04T21:24:43.569Z,11.11
2022-11-04T21:29:45.578Z,11.11
2022-11-04T21:34:47.430Z,11.10
2022-11-04T21:39:49.240Z,11.10
2022-11-04T21:44:51.049Z,11.10
2022-11-04T21:49:52.864Z,11.03
2022-11-04T21:54:54.633Z,10.98
2022-11-04T21:59:56.428Z,10.92
2022-11-04T22:04:58.242Z,10.88
2022-11-04T22:10:00.095Z,10.85
2022-11-04T22:15:09.094Z,10.83
2022-11-04T22:20:11.293Z,10.75
2022-11-04T22:25:13.159Z,10.65
2022-11-04T22:30:15.009Z,10.55
2022-11-04T22:35:17.079Z,10.45
2022-11-04T22:40:18.997Z,10.34
2022-11-04T22:45:20.834Z,10.22
2022-11-04T22:50:23.098Z,10.10
2022-11-04T22:55:24.886Z,9.97
2022-11-04T23:00:26.729Z,9.85
2022-11-04T23:05:31.709Z,9.76
2022-11-04T23:10:52.293Z,9.67
2022-11-04T23:16:12.704Z,9.58
2022-11-04T23:21:37.020Z,9.47
2022-11-04T23:26:39.000Z,9.35
2022-11-04T23:31:40.979Z,9.23
2022-11-04T23:37:01.633Z,9.13
2022-11-04T23:42:18.886Z,9.05
2022-11-04T23:47:39.260Z,9.02
2022-11-04T23:52:59.555Z,9.01
2022-11-04T23:58:19.977Z,9.00
